Time;durP1;ratioP1;P1;durP2;ratioP2;P2;SDS_P1;SDS_P2;PMS_P1;PMS_P2;Temp;Humidity;BMP_temperature;BMP_pressure;BME280_temperature;BME280_humidity;BME280_pressure;Samples;Min_cycle;Max_cycle;Signal;HPM_P1;HPM_P2
2022/04/24 00:01:31;;;;;;;;;;;;;;;;;;5050955;28;1318;-69
2022/04/24 00:03:58;;;;;;;;;;;;;;;;;;5051503;28;1064;-70
2022/04/24 00:06:24;;;;;;;;;;;;;;;;;;5051279;28;905;-69
2022/04/24 00:08:51;;;;;;;;;;;;;;;;;;5051413;28;1142;-68
2022/04/24 00:11:18;;;;;;;;;;;;;;;;;;5051095;28;1918;-69
2022/04/24 00:13:44;;;;;;;;;;;;;;;;;;5051347;28;767;-69
2022/04/24 00:16:10;;;;;;;;;;;;;;;;;;5051389;28;893;-68
2022/04/24 00:18:38;;;;;;;;;;;;;;;;;;5051063;28;1223;-68
2022/04/24 00:21:05;;;;;;;;;;;;;;;;;;5050981;28;1304;-69
2022/04/24 00:23:32;;;;;;;;;;;;;;;;;;5051482;28;1055;-69
2022/04/24 00:25:58;;;;;;;;;;;;;;;;;;5051097;28;1106;-69
2022/04/24 00:28:24;;;;;;;;;;;;;;;;;;5050794;28;1223;-70
2022/04/24 00:30:50;;;;;;;;;;;;;;;;;;5050782;28;1962;-70
2022/04/24 00:33:17;;;;;;;;;;;;;;;;;;5051204;28;1079;-68
2022/04/24 00:35:43;;;;;;;;;;;;;;;;;;5050970;28;1142;-71
2022/04/24 00:38:10;;;;;;;;;;;;;;;;;;5050833;28;835;-71
2022/04/24 00:40:36;;;;;;;;;;;;;;;;;;5050803;28;1428;-69
2022/04/24 00:43:03;;;;;;;;;;;;;;;;;;5051008;28;1122;-71
2022/04/24 00:45:50;;;;;;;;;;;;;;;;;;5050854;28;1185;-70
2022/04/24 00:48:16;;;;;;;;;;;;;;;;;;5039614;28;1107;-71
2022/04/24 00:50:43;;;;;;;;;;;;;;;;;;5041131;28;1974;-72
2022/04/24 00:53:10;;;;;;;;;;;;;;;;;;5047537;28;1305;-70
2022/04/24 00:55:37;;;;;;;;;;;;;;;;;;5050245;28;1263;-70
2022/04/24 00:58:03;;;;;;;;;;;;;;;;;;5050605;28;846;-69
2022/04/24 01:00:29;;;;;;;;;;;;;;;;;;5050745;28;1279;-69
2022/04/24 01:02:56;;;;;;;;;;;;;;;;;;5050679;28;1090;-70
2022/04/24 01:05:23;;;;;;;;;;;;;;;;;;5050721;28;1051;-69
2022/04/24 01:07:49;;;;;;;;;;;;;;;;;;5050449;28;1150;-69
2022/04/24 01:10:17;;;;;;;;;;;;;;;;;;5050463;28;1930;-71
2022/04/24 01:12:43;;;;;;;;;;;;;;;;;;5054481;28;1062;-70
2022/04/24 01:15:10;;;;;;;;;;;;;;;;;;5054643;28;922;-70
2022/04/24 01:17:36;;;;;;;;;;;;;;;;;;5054025;28;802;-70
2022/04/24 01:20:02;;;;;;;;;;;;;;;;;;5054619;28;1288;-71
2022/04/24 01:22:29;;;;;;;;;;;;;;;;;;5054510;28;835;-70
2022/04/24 01:24:56;;;;;;;;;;;;;;;;;;5054627;28;783;-70
2022/04/24 01:27:22;;;;;;;;;;;;;;;;;;5054503;28;1060;-70
2022/04/24 01:29:48;;;;;;;;;;;;;;;;;;5054214;28;1965;-69
2022/04/24 01:32:14;;;;;;;;;;;;;;;;;;5054571;28;1072;-70
2022/04/24 01:34:40;;;;;;;;;;;;;;;;;;5054314;28;877;-69
2022/04/24 01:37:07;;;;;;;;;;;;;;;;;;5054018;28;1083;-70
2022/04/24 01:39:34;;;;;;;;;;;;;;;;;;5054116;28;1055;-68
2022/04/24 01:42:00;;;;;;;;;;;;;;;;;;5054172;28;1302;-70
2022/04/24 01:44:27;;;;;;;;;;;;;;;;;;5054054;28;1491;-69
2022/04/24 01:46:53;;;;;;;;;;;;;;;;;;5053969;28;1503;-70
2022/04/24 01:49:20;;;;;;;;;;;;;;;;;;5053990;28;1140;-69
2022/04/24 01:51:48;;;;;;;;;;;;;;;;;;5053722;28;1910;-69
2022/04/24 01:54:14;;;;;;;;;;;;;;;;;;5052724;28;1112;-70
2022/04/24 01:56:42;;;;;;;;;;;;;;;;;;5053619;28;893;-69
2022/04/24 01:59:08;;;;;;;;;;;;;;;;;;5054026;28;1064;-69
2022/04/24 02:01:36;;;;;;;;;;;;;;;;;;5053797;28;1281;-70
2022/04/24 02:04:02;;;;;;;;;;;;;;;;;;5054134;28;1079;-70
2022/04/24 02:06:28;;;;;;;;;;;;;;;;;;5053804;28;1108;-70
2022/04/24 02:08:55;;;;;;;;;;;;;;;;;;5054047;28;1060;-70
2022/04/24 02:11:21;;;;;;;;;;;;;;;;;;5053444;28;1968;-69
2022/04/24 02:13:48;;;;;;;;;;;;;;;;;;5090374;22;3695;-70
2022/04/24 02:16:15;;;;;;;;;;;;;;;;;;5092328;28;854;-70
2022/04/24 02:18:41;;;;;;;;;;;;;;;;;;5092994;28;1032;-70
2022/04/24 02:21:07;;;;;;;;;;;;;;;;;;5093822;28;763;-70
2022/04/24 02:23:33;;;;;;;;;;;;;;;;;;5092514;28;1401;-70
2022/04/24 02:26:00;;;;;;;;;;;;;;;;;;5093693;28;1123;-70
2022/04/24 02:28:26;;;;;;;;;;;;;;;;;;5093139;28;885;-69
2022/04/24 02:30:53;;;;;;;;;;;;;;;;;;5093240;28;1977;-68
2022/04/24 02:33:19;;;;;;;;;;;;;;;;;;5075135;28;1408;-70
2022/04/24 02:35:46;;;;;;;;;;;;;;;;;;5075271;28;1277;-70
2022/04/24 02:38:12;;;;;;;;;;;;;;;;;;5093112;28;945;-68
2022/04/24 02:40:38;;;;;;;;;;;;;;;;;;5093141;28;1977;-69
2022/04/24 02:43:04;;;;;;;;;;;;;;;;;;5093166;28;1322;-70
2022/04/24 02:45:31;;;;;;;;;;;;;;;;;;5093471;28;1012;-71
2022/04/24 02:47:58;;;;;;;;;;;;;;;;;;5074774;28;1223;-70
2022/04/24 02:50:24;;;;;;;;;;;;;;;;;;5093160;28;988;-70
2022/04/24 02:52:51;;;;;;;;;;;;;;;;;;5092578;28;1414;-70
2022/04/24 02:55:18;;;;;;;;;;;;;;;;;;5093135;28;802;-71
2022/04/24 02:57:45;;;;;;;;;;;;;;;;;;5092769;28;1020;-70
2022/04/24 03:00:11;;;;;;;;;;;;;;;;;;5093146;28;1913;-71
2022/04/24 03:02:42;;;;;;;;;;;;;;;;;;5092489;28;1328;-70
2022/04/24 03:05:10;;;;;;;;;;;;;;;;;;5093047;28;845;-70
2022/04/24 03:07:36;;;;;;;;;;;;;;;;;;5092283;28;1059;-71
2022/04/24 03:10:02;;;;;;;;;;;;;;;;;;5092697;28;981;-71
2022/04/24 03:12:29;;;;;;;;;;;;;;;;;;5092089;28;1430;-71
2022/04/24 03:14:55;;;;;;;;;;;;;;;;;;5092677;28;799;-70
2022/04/24 03:17:22;;;;;;;;;;;;;;;;;;5092524;28;1115;-71
2022/04/24 03:19:48;;;;;;;;;;;;;;;;;;5092380;28;851;-70
2022/04/24 03:22:15;;;;;;;;;;;;;;;;;;5092051;28;1977;-70
2022/04/24 03:24:41;;;;;;;;;;;;;;;;;;5092392;28;1071;-70
2022/04/24 03:27:08;;;;;;;;;;;;;;;;;;5092287;28;1062;-71
2022/04/24 03:29:34;;;;;;;;;;;;;;;;;;5092320;28;1122;-70
2022/04/24 03:32:00;;;;;;;;;;;;;;;;;;5091996;28;872;-70
2022/04/24 03:34:26;;;;;;;;;;;;;;;;;;5091501;28;1425;-71
2022/04/24 03:36:52;;;;;;;;;;;;;;;;;;5091751;28;1123;-71
2022/04/24 03:39:20;;;;;;;;;;;;;;;;;;5092575;28;1103;-71
2022/04/24 03:41:46;;;;;;;;;;;;;;;;;;5091504;28;1914;-70
2022/04/24 03:44:13;;;;;;;;;;;;;;;;;;5091952;28;1289;-70
2022/04/24 03:46:39;;;;;;;;;;;;;;;;;;5074166;28;1515;-70
2022/04/24 03:49:05;;;;;;;;;;;;;;;;;;5071630;28;1099;-71
2022/04/24 03:51:31;;;;;;;;;;;;;;;;;;5071319;28;881;-71
2022/04/24 03:53:58;;;;;;;;;;;;;;;;;;5071357;28;1260;-71
2022/04/24 03:56:25;;;;;;;;;;;;;;;;;;5071395;28;992;-71
2022/04/24 03:58:51;;;;;;;;;;;;;;;;;;5071609;28;1107;-70
2022/04/24 04:01:17;;;;;;;;;;;;;;;;;;5072861;28;2057;-71
2022/04/24 04:03:44;;;;;;;;;;;;;;;;;;5088562;28;1546;-70
2022/04/24 04:06:10;;;;;;;;;;;;;;;;;;5072901;28;1283;-70
2022/04/24 04:08:36;;;;;;;;;;;;;;;;;;5091896;28;1063;-70
2022/04/24 04:11:02;;;;;;;;;;;;;;;;;;5091659;28;873;-70
2022/04/24 04:13:30;;;;;;;;;;;;;;;;;;5091166;28;1313;-70
2022/04/24 04:15:56;;;;;;;;;;;;;;;;;;5091488;28;1130;-70
2022/04/24 04:18:22;;;;;;;;;;;;;;;;;;5091135;28;893;-70
2022/04/24 04:20:48;;;;;;;;;;;;;;;;;;5091405;28;1913;-70
2022/04/24 04:23:14;;;;;;;;;;;;;;;;;;5091098;28;1304;-70
2022/04/24 04:25:41;;;;;;;;;;;;;;;;;;5073271;28;1167;-71
2022/04/24 04:28:07;;;;;;;;;;;;;;;;;;5090795;28;1055;-71
2022/04/24 04:30:35;;;;;;;;;;;;;;;;;;5072909;28;1383;-70
2022/04/24 04:33:01;;;;;;;;;;;;;;;;;;5091049;28;1392;-71
2022/04/24 04:35:27;;;;;;;;;;;;;;;;;;5091251;28;943;-70
2022/04/24 04:37:53;;;;;;;;;;;;;;;;;;5089604;28;861;-71
2022/04/24 04:40:20;;;;;;;;;;;;;;;;;;5091032;28;1115;-72
2022/04/24 04:42:47;;;;;;;;;;;;;;;;;;5090672;28;1917;-72
2022/04/24 04:45:14;;;;;;;;;;;;;;;;;;5090959;28;1047;-72
2022/04/24 04:47:41;;;;;;;;;;;;;;;;;;5087678;28;1589;-71
2022/04/24 04:50:08;;;;;;;;;;;;;;;;;;5068902;28;1809;-71
2022/04/24 04:52:34;;;;;;;;;;;;;;;;;;5086426;28;1653;-72
2022/04/24 04:55:00;;;;;;;;;;;;;;;;;;5088573;28;1134;-71
2022/04/24 04:57:27;;;;;;;;;;;;;;;;;;5086838;28;1439;-72
2022/04/24 04:59:53;;;;;;;;;;;;;;;;;;5087973;28;1474;-72
2022/04/24 05:02:19;;;;;;;;;;;;;;;;;;5067433;28;1906;-70
2022/04/24 05:04:47;;;;;;;;;;;;;;;;;;5082363;28;1168;-73
2022/04/24 05:07:13;;;;;;;;;;;;;;;;;;5050184;28;1164;-72
2022/04/24 05:09:39;;;;;;;;;;;;;;;;;;5075385;28;1407;-71
2022/04/24 05:12:06;;;;;;;;;;;;;;;;;;5088407;28;1106;-71
2022/04/24 05:14:32;;;;;;;;;;;;;;;;;;5084664;28;1473;-71
2022/04/24 05:16:59;;;;;;;;;;;;;;;;;;5088329;28;1212;-72
2022/04/24 05:19:25;;;;;;;;;;;;;;;;;;5085991;28;1418;-71
2022/04/24 05:21:53;;;;;;;;;;;;;;;;;;5088190;28;1914;-71
2022/04/24 05:24:19;;;;;;;;;;;;;;;;;;5079165;28;1418;-71
2022/04/24 05:26:45;;;;;;;;;;;;;;;;;;5088366;28;1204;-72
2022/04/24 05:29:12;;;;;;;;;;;;;;;;;;5087196;28;1469;-71
2022/04/24 05:31:38;;;;;;;;;;;;;;;;;;5088645;28;1141;-71
2022/04/24 05:34:05;;;;;;;;;;;;;;;;;;5067942;28;1493;-71
2022/04/24 05:36:31;;;;;;;;;;;;;;;;;;5086971;28;1449;-71
2022/04/24 05:38:58;;;;;;;;;;;;;;;;;;5082446;28;1418;-71
2022/04/24 05:41:25;;;;;;;;;;;;;;;;;;5070173;28;1979;-71
2022/04/24 05:43:51;;;;;;;;;;;;;;;;;;5086771;28;1506;-72
2022/04/24 05:46:17;;;;;;;;;;;;;;;;;;5087871;28;1145;-71
2022/04/24 05:48:43;;;;;;;;;;;;;;;;;;5087275;28;1434;-72
2022/04/24 05:51:09;;;;;;;;;;;;;;;;;;5088130;28;1122;-71
2022/04/24 05:53:36;;;;;;;;;;;;;;;;;;5084524;28;1442;-71
2022/04/24 05:56:03;;;;;;;;;;;;;;;;;;5084862;28;1405;-71
2022/04/24 05:58:29;;;;;;;;;;;;;;;;;;5088365;28;1461;-71
2022/04/24 06:00:56;;;;;;;;;;;;;;;;;;5091754;28;1165;-70
2022/04/24 06:03:22;;;;;;;;;;;;;;;;;;5071111;28;1910;-71
2022/04/24 06:05:48;;;;;;;;;;;;;;;;;;5088783;28;1078;-71
2022/04/24 06:08:15;;;;;;;;;;;;;;;;;;5090292;28;1430;-71
2022/04/24 06:10:41;;;;;;;;;;;;;;;;;;5091490;28;1109;-70
2022/04/24 06:13:09;;;;;;;;;;;;;;;;;;5089791;28;1386;-70
2022/04/24 06:15:35;;;;;;;;;;;;;;;;;;5071050;28;1458;-71
2022/04/24 06:18:02;;;;;;;;;;;;;;;;;;5085133;28;1402;-71
2022/04/24 06:20:28;;;;;;;;;;;;;;;;;;5077558;28;1431;-71
2022/04/24 06:22:55;;;;;;;;;;;;;;;;;;5089684;28;1977;-71
2022/04/24 06:25:22;;;;;;;;;;;;;;;;;;5090477;28;1238;-72
2022/04/24 06:27:48;;;;;;;;;;;;;;;;;;5089494;28;1378;-71
2022/04/24 06:30:16;;;;;;;;;;;;;;;;;;5085808;28;1430;-71
2022/04/24 06:32:43;;;;;;;;;;;;;;;;;;5082088;28;1420;-71
2022/04/24 06:35:10;;;;;;;;;;;;;;;;;;5090524;28;1197;-72
2022/04/24 06:37:36;;;;;;;;;;;;;;;;;;5065660;28;1489;-72
2022/04/24 06:40:03;;;;;;;;;;;;;;;;;;5084307;28;1818;-71
2022/04/24 06:42:29;;;;;;;;;;;;;;;;;;5086081;28;1942;-71
2022/04/24 06:44:56;;;;;;;;;;;;;;;;;;5088696;28;1161;-71
2022/04/24 06:47:23;;;;;;;;;;;;;;;;;;5089068;28;1379;-70
2022/04/24 06:49:49;;;;;;;;;;;;;;;;;;5088382;28;1441;-70
2022/04/24 06:52:16;;;;;;;;;;;;;;;;;;5090378;28;1418;-71
2022/04/24 06:54:44;;;;;;;;;;;;;;;;;;5075978;28;1471;-71
2022/04/24 06:57:10;;;;;;;;;;;;;;;;;;5084539;28;1401;-71
2022/04/24 06:59:36;;;;;;;;;;;;;;;;;;5072786;28;1258;-72
2022/04/24 07:02:02;;;;;;;;;;;;;;;;;;5089236;28;1905;-71
2022/04/24 07:04:30;;;;;;;;;;;;;;;;;;5090568;28;1331;-71
2022/04/24 07:06:56;;;;;;;;;;;;;;;;;;5078731;28;1466;-70
2022/04/24 07:09:22;;;;;;;;;;;;;;;;;;5081800;28;1904;-73
2022/04/24 07:11:48;;;;;;;;;;;;;;;;;;5075182;28;1455;-71
2022/04/24 07:14:14;;;;;;;;;;;;;;;;;;5090759;28;1493;-71
2022/04/24 07:16:41;;;;;;;;;;;;;;;;;;5088829;28;1401;-72
2022/04/24 07:19:08;;;;;;;;;;;;;;;;;;5090110;28;1465;-71
2022/04/24 07:21:35;;;;;;;;;;;;;;;;;;5091940;28;1977;-72
2022/04/24 07:24:03;;;;;;;;;;;;;;;;;;5090866;28;1417;-71
2022/04/24 07:26:29;;;;;;;;;;;;;;;;;;5090726;28;1366;-70
2022/04/24 07:28:55;;;;;;;;;;;;;;;;;;5091868;28;1283;-70
2022/04/24 07:31:21;;;;;;;;;;;;;;;;;;5091935;28;889;-71
2022/04/24 07:33:48;;;;;;;;;;;;;;;;;;5074069;28;1428;-71
2022/04/24 07:36:14;;;;;;;;;;;;;;;;;;5071753;28;834;-72
2022/04/24 07:38:42;;;;;;;;;;;;;;;;;;5072242;28;1142;-70
2022/04/24 07:41:08;;;;;;;;;;;;;;;;;;5071889;28;1246;-71
2022/04/24 07:43:34;;;;;;;;;;;;;;;;;;5071487;28;1913;-72
2022/04/24 07:46:00;;;;;;;;;;;;;;;;;;5071791;28;1131;-72
2022/04/24 07:48:27;;;;;;;;;;;;;;;;;;5076423;28;1451;-72
2022/04/24 07:50:53;;;;;;;;;;;;;;;;;;5091819;28;1180;-71
2022/04/24 07:53:20;;;;;;;;;;;;;;;;;;5091574;28;1428;-71
2022/04/24 07:55:48;;;;;;;;;;;;;;;;;;5092004;28;941;-71
2022/04/24 07:58:14;;;;;;;;;;;;;;;;;;5091857;28;632;-72
2022/04/24 08:00:41;;;;;;;;;;;;;;;;;;5091812;28;854;-71
2022/04/24 08:03:07;;;;;;;;;;;;;;;;;;5091034;28;1917;-72
2022/04/24 08:05:34;;;;;;;;;;;;;;;;;;5091870;28;1055;-72
2022/04/24 08:08:01;;;;;;;;;;;;;;;;;;5091530;28;1139;-72
2022/04/24 08:10:28;;;;;;;;;;;;;;;;;;5091674;28;1146;-71
2022/04/24 08:12:56;;;;;;;;;;;;;;;;;;5073406;28;1334;-71
2022/04/24 08:15:22;;;;;;;;;;;;;;;;;;5090875;28;1917;-69
2022/04/24 08:17:48;;;;;;;;;;;;;;;;;;5090777;28;1101;-72
2022/04/24 08:20:15;;;;;;;;;;;;;;;;;;5090513;28;1051;-72
2022/04/24 08:22:42;;;;;;;;;;;;;;;;;;5090236;28;1914;-72
2022/04/24 08:25:09;;;;;;;;;;;;;;;;;;5091348;28;972;-72
2022/04/24 08:27:35;;;;;;;;;;;;;;;;;;5091009;28;1067;-71
2022/04/24 08:30:03;;;;;;;;;;;;;;;;;;5091229;28;808;-72
2022/04/24 08:32:30;;;;;;;;;;;;;;;;;;5091230;28;1288;-72
2022/04/24 08:34:57;;;;;;;;;;;;;;;;;;5091459;28;925;-71
2022/04/24 08:37:23;;;;;;;;;;;;;;;;;;5090892;28;783;-71
2022/04/24 08:39:49;;;;;;;;;;;;;;;;;;5091253;28;981;-72
2022/04/24 08:42:18;;;;;;;;;;;;;;;;;;5090528;28;1961;-72
2022/04/24 08:44:45;;;;;;;;;;;;;;;;;;5091283;28;1139;-72
2022/04/24 08:47:12;;;;;;;;;;;;;;;;;;5090679;28;1055;-70
2022/04/24 08:49:38;;;;;;;;;;;;;;;;;;5091286;28;814;-71
2022/04/24 08:52:05;;;;;;;;;;;;;;;;;;5090522;28;1207;-72
2022/04/24 08:54:31;;;;;;;;;;;;;;;;;;5090695;28;1406;-71
2022/04/24 08:56:58;;;;;;;;;;;;;;;;;;5090675;28;1051;-71
2022/04/24 08:59:24;;;;;;;;;;;;;;;;;;5091273;28;940;-72
2022/04/24 09:01:51;;;;;;;;;;;;;;;;;;5091015;28;813;-71
2022/04/24 09:04:20;;;;;;;;;;;;;;;;;;5090480;28;1902;-71
2022/04/24 09:06:54;;;;;;;;;;;;;;;;;;5090854;28;1051;-72
2022/04/24 09:09:21;;;;;;;;;;;;;;;;;;5071518;28;1470;-72
2022/04/24 09:11:47;;;;;;;;;;;;;;;;;;5090782;28;1075;-72
2022/04/24 09:14:19;;;;;;;;;;;;;;;;;;5088392;28;1558;-72
2022/04/24 09:16:48;;;;;;;;;;;;;;;;;;5081588;28;1633;-72
2022/04/24 09:19:19;;;;;;;;;;;;;;;;;;5070617;28;965;-72
2022/04/24 09:21:46;;;;;;;;;;;;;;;;;;5082843;28;1395;-71
2022/04/24 09:24:13;;;;;;;;;;;;;;;;;;5087446;28;1906;-72
2022/04/24 09:26:49;;;;;;;;;;;;;;;;;;5090682;28;1283;-71
2022/04/24 09:29:15;;;;;;;;;;;;;;;;;;5090997;28;842;-72
2022/04/24 09:31:44;;;;;;;;;;;;;;;;;;5090844;28;1059;-71
2022/04/24 09:34:10;;;;;;;;;;;;;;;;;;5093827;28;1296;-72
2022/04/24 09:36:37;;;;;;;;;;;;;;;;;;5058856;28;1594;-71
2022/04/24 09:39:04;;;;;;;;;;;;;;;;;;5074122;28;1104;-72
2022/04/24 09:41:30;;;;;;;;;;;;;;;;;;5074305;28;1079;-72
2022/04/24 09:43:56;;;;;;;;;;;;;;;;;;5074169;28;1910;-71
2022/04/24 09:46:29;;;;;;;;;;;;;;;;;;5055478;28;1048;-71
2022/04/24 09:48:58;;;;;;;;;;;;;;;;;;5073535;28;1001;-69
2022/04/24 09:51:25;;;;;;;;;;;;;;;;;;5073897;28;1063;-70
2022/04/24 09:53:51;;;;;;;;;;;;;;;;;;5073666;28;1307;-71
2022/04/24 09:56:18;;;;;;;;;;;;;;;;;;5073643;28;886;-72
2022/04/24 09:58:45;;;;;;;;;;;;;;;;;;5073475;28;988;-71
2022/04/24 10:01:11;;;;;;;;;;;;;;;;;;5073872;28;1115;-73
2022/04/24 10:03:38;;;;;;;;;;;;;;;;;;5079751;28;1997;-72
2022/04/24 10:06:04;;;;;;;;;;;;;;;;;;5093593;28;1006;-71
2022/04/24 10:08:30;;;;;;;;;;;;;;;;;;5093713;28;1075;-71
2022/04/24 10:10:57;;;;;;;;;;;;;;;;;;5093275;28;810;-72
2022/04/24 10:13:24;;;;;;;;;;;;;;;;;;5093483;28;1308;-72
2022/04/24 10:16:00;;;;;;;;;;;;;;;;;;5093522;28;1115;-71
2022/04/24 10:18:32;;;;;;;;;;;;;;;;;;5075252;28;1334;-72
2022/04/24 10:21:03;;;;;;;;;;;;;;;;;;5093483;28;1075;-72
2022/04/24 10:23:29;;;;;;;;;;;;;;;;;;5093373;28;1910;-72
2022/04/24 10:25:56;;;;;;;;;;;;;;;;;;5093327;28;1000;-72
2022/04/24 10:28:22;;;;;;;;;;;;;;;;;;5093456;28;810;-71
2022/04/24 10:30:58;;;;;;;;;;;;;;;;;;5092899;28;845;-72
2022/04/24 10:33:25;;;;;;;;;;;;;;;;;;5093179;28;1317;-71
2022/04/24 10:35:51;;;;;;;;;;;;;;;;;;5093239;28;959;-72
2022/04/24 10:38:19;;;;;;;;;;;;;;;;;;5074755;28;1294;-72
2022/04/24 10:40:56;;;;;;;;;;;;;;;;;;5092360;28;1063;-72
2022/04/24 10:43:23;;;;;;;;;;;;;;;;;;5092506;28;1914;-72
2022/04/24 10:45:50;;;;;;;;;;;;;;;;;;5092722;28;870;-72
2022/04/24 10:48:17;;;;;;;;;;;;;;;;;;5092634;28;1126;-71
2022/04/24 10:50:47;;;;;;;;;;;;;;;;;;5092141;28;1100;-72
2022/04/24 10:53:13;;;;;;;;;;;;;;;;;;5092717;28;1281;-71
2022/04/24 10:55:40;;;;;;;;;;;;;;;;;;5085067;28;1546;-71
2022/04/24 10:58:06;;;;;;;;;;;;;;;;;;5089150;28;1377;-71
2022/04/24 11:00:34;;;;;;;;;;;;;;;;;;5080668;28;1458;-71
2022/04/24 11:03:11;;;;;;;;;;;;;;;;;;5091659;28;1894;-72
2022/04/24 11:05:39;;;;;;;;;;;;;;;;;;5090202;28;1718;-71
2022/04/24 11:08:06;;;;;;;;;;;;;;;;;;5091743;28;1213;-72
2022/04/24 11:10:38;;;;;;;;;;;;;;;;;;5079070;28;1338;-72
2022/04/24 11:13:04;;;;;;;;;;;;;;;;;;5071857;28;1405;-72
2022/04/24 11:15:31;;;;;;;;;;;;;;;;;;5086040;28;1774;-72
2022/04/24 11:17:57;;;;;;;;;;;;;;;;;;5088406;28;1549;-72
2022/04/24 11:20:27;;;;;;;;;;;;;;;;;;5073524;28;1356;-71
2022/04/24 11:22:55;;;;;;;;;;;;;;;;;;5089451;28;1906;-71
2022/04/24 11:25:22;;;;;;;;;;;;;;;;;;5089581;28;1477;-72
2022/04/24 11:27:50;;;;;;;;;;;;;;;;;;5086256;28;1495;-72
2022/04/24 11:30:16;;;;;;;;;;;;;;;;;;5091510;28;948;-72
2022/04/24 11:32:43;;;;;;;;;;;;;;;;;;5079610;28;1578;-72
2022/04/24 11:35:09;;;;;;;;;;;;;;;;;;5090128;28;1478;-71
2022/04/24 11:37:35;;;;;;;;;;;;;;;;;;5084915;28;1995;-71
2022/04/24 11:40:03;;;;;;;;;;;;;;;;;;5090631;28;1490;-72
2022/04/24 11:42:29;;;;;;;;;;;;;;;;;;5086682;28;1869;-72
2022/04/24 11:50:23;;;;;;;;;;;;;;;;;;5071205;28;1047;-72
2022/04/24 11:52:50;;;;;;;;;;;;;;;;;;5063797;28;1830;-72
2022/04/24 11:55:18;;;;;;;;;;;;;;;;;;5090842;28;1216;-72
2022/04/24 11:57:44;;;;;;;;;;;;;;;;;;5081471;28;1877;-71
2022/04/24 12:00:13;;;;;;;;;;;;;;;;;;5088810;28;1598;-72
2022/04/24 12:02:40;;;;;;;;;;;;;;;;;;5077911;28;1826;-72
2022/04/24 12:05:08;;;;;;;;;;;;;;;;;;5086517;28;1926;-72
2022/04/24 12:07:36;;;;;;;;;;;;;;;;;;5090834;28;1042;-72
2022/04/24 12:10:03;;;;;;;;;;;;;;;;;;5080809;28;1863;-71
2022/04/24 12:12:31;;;;;;;;;;;;;;;;;;5082245;28;1794;-71
2022/04/24 12:14:57;;;;;;;;;;;;;;;;;;5083184;28;1821;-70
2022/04/24 12:17:24;;;;;;;;;;;;;;;;;;5089589;28;1453;-71
2022/04/24 12:19:51;;;;;;;;;;;;;;;;;;5091070;28;1383;-72
2022/04/24 12:22:25;;;;;;;;;;;;;;;;;;5091033;28;980;-71
2022/04/24 12:24:51;;;;;;;;;;;;;;;;;;5090578;28;1910;-72
2022/04/24 12:27:18;;;;;;;;;;;;;;;;;;5087029;28;1064;-72
2022/04/24 12:29:48;;;;;;;;;;;;;;;;;;5090021;28;1850;-72
2022/04/24 12:32:14;;;;;;;;;;;;;;;;;;5078457;28;1509;-72
2022/04/24 12:34:41;;;;;;;;;;;;;;;;;;5067988;28;1572;-72
2022/04/24 12:37:07;;;;;;;;;;;;;;;;;;5084696;28;1775;-72
2022/04/24 12:39:34;;;;;;;;;;;;;;;;;;5085391;28;1137;-72
2022/04/24 12:42:10;;;;;;;;;;;;;;;;;;5085262;28;1821;-71
2022/04/24 12:44:36;;;;;;;;;;;;;;;;;;5082386;28;1950;-73
2022/04/24 12:47:04;;;;;;;;;;;;;;;;;;5082809;28;1473;-72
2022/04/24 12:49:31;;;;;;;;;;;;;;;;;;5086308;28;1569;-72
2022/04/24 12:51:58;;;;;;;;;;;;;;;;;;5070625;28;1448;-72
2022/04/24 12:54:24;;;;;;;;;;;;;;;;;;5090911;28;1318;-72
2022/04/24 12:56:50;;;;;;;;;;;;;;;;;;5090899;28;841;-72
2022/04/24 12:59:16;;;;;;;;;;;;;;;;;;5090985;28;1122;-72
2022/04/24 13:01:44;;;;;;;;;;;;;;;;;;5090856;28;791;-73
2022/04/24 13:04:11;;;;;;;;;;;;;;;;;;5085866;28;1922;-72
2022/04/24 13:06:40;;;;;;;;;;;;;;;;;;5081489;28;1391;-72
2022/04/24 13:09:06;;;;;;;;;;;;;;;;;;5094478;28;995;-72
2022/04/24 13:11:32;;;;;;;;;;;;;;;;;;5085087;28;1581;-71
2022/04/24 13:13:58;;;;;;;;;;;;;;;;;;5089783;28;1415;-71
2022/04/24 13:19:09;;;;;;;;;;;;;;;;;;5090078;28;1302;-72
2022/04/24 13:21:37;;;;;;;;;;;;;;;;;;5090703;28;1385;-72
2022/04/24 13:24:03;;;;;;;;;;;;;;;;;;5074325;28;1922;-72
2022/04/24 13:26:29;;;;;;;;;;;;;;;;;;5089745;28;1395;-72
2022/04/24 13:28:56;;;;;;;;;;;;;;;;;;5074461;28;1202;-70
2022/04/24 13:31:22;;;;;;;;;;;;;;;;;;5090887;28;1470;-71
2022/04/24 13:33:48;;;;;;;;;;;;;;;;;;5085854;28;1486;-70
2022/04/24 13:36:15;;;;;;;;;;;;;;;;;;5081584;28;1415;-71
2022/04/24 13:38:42;;;;;;;;;;;;;;;;;;5086345;28;1304;-72
2022/04/24 13:41:09;;;;;;;;;;;;;;;;;;5090965;28;1416;-70
2022/04/24 13:43:36;;;;;;;;;;;;;;;;;;5085017;28;1913;-72
2022/04/24 13:46:03;;;;;;;;;;;;;;;;;;5091341;28;1142;-71
2022/04/24 13:48:30;;;;;;;;;;;;;;;;;;5087658;28;1458;-73
2022/04/24 13:50:57;;;;;;;;;;;;;;;;;;5077700;28;1351;-73
2022/04/24 13:53:23;;;;;;;;;;;;;;;;;;5085941;28;1411;-73
2022/04/24 13:55:51;;;;;;;;;;;;;;;;;;5090838;28;1374;-70
2022/04/24 13:58:17;;;;;;;;;;;;;;;;;;5086131;28;1383;-73
2022/04/24 14:00:45;;;;;;;;;;;;;;;;;;5067217;28;1548;-72
2022/04/24 14:03:12;;;;;;;;;;;;;;;;;;5091932;28;1475;-72
2022/04/24 14:05:39;;;;;;;;;;;;;;;;;;5088260;28;1981;-72
2022/04/24 14:08:05;;;;;;;;;;;;;;;;;;5086655;28;1271;-71
2022/04/24 14:10:31;;;;;;;;;;;;;;;;;;5092708;28;1427;-70
2022/04/24 14:12:59;;;;;;;;;;;;;;;;;;5073095;28;1435;-70
2022/04/24 14:15:27;;;;;;;;;;;;;;;;;;5101073;22;3583;-71
2022/04/24 14:17:55;;;;;;;;;;;;;;;;;;5071283;28;1220;-71
2022/04/24 14:20:21;;;;;;;;;;;;;;;;;;5062567;28;1384;-71
2022/04/24 14:22:47;;;;;;;;;;;;;;;;;;5071981;28;1390;-71
2022/04/24 14:25:13;;;;;;;;;;;;;;;;;;5064488;28;1914;-72
2022/04/24 14:27:40;;;;;;;;;;;;;;;;;;5070791;28;1419;-72
2022/04/24 14:30:10;;;;;;;;;;;;;;;;;;5062116;28;1438;-71
2022/04/24 14:32:36;;;;;;;;;;;;;;;;;;5073200;28;1197;-72
2022/04/24 14:35:03;;;;;;;;;;;;;;;;;;5063606;28;1438;-71
2022/04/24 14:37:29;;;;;;;;;;;;;;;;;;5072333;28;1137;-71
2022/04/24 14:39:56;;;;;;;;;;;;;;;;;;5071745;28;1434;-70
2022/04/24 14:42:22;;;;;;;;;;;;;;;;;;5072655;28;1142;-71
2022/04/24 14:44:48;;;;;;;;;;;;;;;;;;5063907;28;1965;-72
2022/04/24 14:55:45;;;;;;;;;;;;;;;;;;5045336;28;1776;-70
2022/04/24 14:58:11;;;;;;;;;;;;;;;;;;5071699;28;1182;-71
2022/04/24 15:00:40;;;;;;;;;;;;;;;;;;5070354;28;1383;-70
2022/04/24 15:03:08;;;;;;;;;;;;;;;;;;5072547;28;1213;-70
2022/04/24 15:05:35;;;;;;;;;;;;;;;;;;5070541;28;1987;-70
2022/04/24 15:08:01;;;;;;;;;;;;;;;;;;5063746;28;1431;-71
2022/04/24 15:10:27;;;;;;;;;;;;;;;;;;5065860;28;1617;-71
2022/04/24 15:12:54;;;;;;;;;;;;;;;;;;5067988;28;1759;-72
2022/04/24 15:15:20;;;;;;;;;;;;;;;;;;5066644;28;1589;-72
2022/04/24 15:17:46;;;;;;;;;;;;;;;;;;5071627;28;1221;-72
2022/04/24 15:20:13;;;;;;;;;;;;;;;;;;5070180;28;1412;-72
2022/04/24 15:22:40;;;;;;;;;;;;;;;;;;5062521;28;1415;-70
2022/04/24 15:25:07;;;;;;;;;;;;;;;;;;5063298;28;1977;-73
2022/04/24 15:27:33;;;;;;;;;;;;;;;;;;5060421;28;1812;-72
2022/04/24 15:30:00;;;;;;;;;;;;;;;;;;5060299;28;1375;-71
2022/04/24 15:32:26;;;;;;;;;;;;;;;;;;5069060;28;1289;-72
2022/04/24 15:34:52;;;;;;;;;;;;;;;;;;5068412;28;1403;-71
2022/04/24 15:37:20;;;;;;;;;;;;;;;;;;5069443;28;1174;-70
2022/04/24 15:39:46;;;;;;;;;;;;;;;;;;5067157;28;1471;-72
2022/04/24 15:42:13;;;;;;;;;;;;;;;;;;5067115;28;1505;-71
2022/04/24 15:47:25;;;;;;;;;;;;;;;;;;5068299;28;1474;-72
2022/04/24 15:49:52;;;;;;;;;;;;;;;;;;5065441;28;1458;-71
2022/04/24 15:52:20;;;;;;;;;;;;;;;;;;5066918;28;1418;-72
2022/04/24 15:54:47;;;;;;;;;;;;;;;;;;5058049;28;1407;-72
2022/04/24 15:57:13;;;;;;;;;;;;;;;;;;5060838;28;1111;-71
2022/04/24 15:59:40;;;;;;;;;;;;;;;;;;5060852;28;1419;-72
2022/04/24 16:02:06;;;;;;;;;;;;;;;;;;5068396;28;1170;-71
2022/04/24 16:04:33;;;;;;;;;;;;;;;;;;5067660;28;1917;-73
2022/04/24 16:06:59;;;;;;;;;;;;;;;;;;5064434;28;1538;-72
2022/04/24 16:09:27;;;;;;;;;;;;;;;;;;5044853;28;1152;-72
2022/04/24 16:11:53;;;;;;;;;;;;;;;;;;5067473;28;1495;-73
2022/04/24 16:14:19;;;;;;;;;;;;;;;;;;5061368;28;1119;-72
2022/04/24 16:16:45;;;;;;;;;;;;;;;;;;5067633;28;1419;-73
2022/04/24 16:19:12;;;;;;;;;;;;;;;;;;5067180;28;1367;-72
2022/04/24 16:21:39;;;;;;;;;;;;;;;;;;5068918;28;1324;-73
2022/04/24 16:24:05;;;;;;;;;;;;;;;;;;5067989;28;1468;-72
2022/04/24 16:26:33;;;;;;;;;;;;;;;;;;5069641;28;3231;-73
2022/04/24 16:28:59;;;;;;;;;;;;;;;;;;5069740;28;1462;-73
2022/04/24 16:31:27;;;;;;;;;;;;;;;;;;5068540;28;1126;-70
2022/04/24 16:33:53;;;;;;;;;;;;;;;;;;5067967;28;1399;-74
2022/04/24 16:36:19;;;;;;;;;;;;;;;;;;5066622;28;1391;-73
2022/04/24 16:38:49;;;;;;;;;;;;;;;;;;5068945;28;1221;-71
2022/04/24 16:41:16;;;;;;;;;;;;;;;;;;5064421;28;1593;-73
2022/04/24 16:43:43;;;;;;;;;;;;;;;;;;5065424;28;992;-73
2022/04/24 16:46:10;;;;;;;;;;;;;;;;;;5049387;28;1991;-71
2022/04/24 16:48:36;;;;;;;;;;;;;;;;;;5068799;28;1158;-72
2022/04/24 16:59:15;;;;;;;;;;;;;;;;;;5067896;28;1358;-73
2022/04/24 17:01:42;;;;;;;;;;;;;;;;;;5050571;28;1404;-72
2022/04/24 17:04:08;;;;;;;;;;;;;;;;;;5066983;28;1472;-72
2022/04/24 17:06:34;;;;;;;;;;;;;;;;;;5062062;28;1918;-72
2022/04/24 17:09:00;;;;;;;;;;;;;;;;;;5058005;28;1122;-72
2022/04/24 17:11:27;;;;;;;;;;;;;;;;;;5064150;28;1424;-72
2022/04/24 17:13:54;;;;;;;;;;;;;;;;;;5067731;28;1470;-71
2022/04/24 17:16:22;;;;;;;;;;;;;;;;;;5067985;28;1416;-71
2022/04/24 17:18:49;;;;;;;;;;;;;;;;;;5059300;28;1474;-73
2022/04/24 17:21:15;;;;;;;;;;;;;;;;;;5067196;28;1431;-72
2022/04/24 17:23:41;;;;;;;;;;;;;;;;;;5059940;28;1438;-71
2022/04/24 17:26:07;;;;;;;;;;;;;;;;;;5072065;28;1969;-70
2022/04/24 17:28:34;;;;;;;;;;;;;;;;;;5067871;28;1424;-73
2022/04/24 17:31:00;;;;;;;;;;;;;;;;;;5067057;28;1727;-72